MMCL/CUL METAR and TAF weather

Enter ICAO airport designator
Station Type Date Time Source
MMCL METAR 2019/12/07 16:40 UTC NOAA

MMCL 071640Z 00000KT 10SM SKC 24/19 A3007 RMK HZY


Station Type Date Time Source
MMCL Decoded METAR 2019/12/07 16:40 UTC NOAA

Culiacan, Sin., Mexico (MMCL) 24-49N 107-24W
Dec 07, 2019 - 11:40 AM EST / 2019.12.07 1640 UTC
Wind: Calm:0
Visibility: 10 mile(s):0
Sky conditions: clear
Temperature: 75 F (24 C)
Dew Point: 66 F (19 C)
Relative Humidity: 73%
Pressure (altimeter): 30.07 in. Hg (1018 hPa)
ob: MMCL 071640Z 00000KT 10SM SKC 24/19 A3007 RMK HZY
cycle: 16

Station Type Date Time Source
MMCL TAF 2019/12/07 18:57 UTC NOAA

TAF TAF MMCL 071655Z 0718/0818 21005KT P6SM SKC
BECMG 0720/0721 23010KT SCT020
FM080200 00000KT P6SM SKC
FM081000 05005KT 6SM HZ SKC
TEMPO 0811/0815 3SM BR HZ SCT015

Example: see airport list